LIPXLIMP

Guest
Details From LIPX - Villafranca
To LIMP - Parma
Flight Number -
Tags Routegen Generated
Created
Modified
Stats Distance 42 nm / 77 km
Max Altitude 100 ft / 30 m
Waypoints 5
Social Downloads 2
Likes 0
Share VATSIM

Download

Looking for another format? Having issues loading an existing format? Contact us
Advertisement - Login to hide

Notes

Departing runway 22 LIPX. Arriving runway 1 LIMP.

Route

LIPX +45.34_+010.80 +45.16_+010.58 +44.97_+010.36 LIMP

ID Type Via Altitude Latitude Longitude Leg Dist Tot Dist Heading (true) Name
O LIPX APT - 100 ft / 30 m 45.38732˚ 10.87633˚ - 0 nm - -
+45.34_+010.80 DME - 100 ft / 30 m 45.33685˚ 10.80251˚ 4 nm 4 nm 226° / 226° -
+45.16_+010.58 DME - 100 ft / 30 m 45.15549˚ 10.58205˚ 14 nm 18 nm 221° / 220° -
+44.97_+010.36 DME - 100 ft / 30 m 44.97413˚ 10.36159˚ 14 nm 33 nm 221° / 221° -
O LIMP APT - 0 ft / 0 m 44.83589˚ 10.30109˚ 8 nm 41 nm 197° / 197° -

Altitude Profile

Advertisement - Login to hide

LIPX

Details ICAO LIPX (VRN)
Name VILLAFRANCA
Region Italy
Timezone Europe/Rome (UTC+1.0)
Stats Elevation 239 ft / 73 m (AMSL)
Location 45.396942° 10.890418°
Runways 1
Magnetic Variation 2.860° E

METAR

LIPX 131250Z 14003KT 7000 NSC 08/04 Q1016

Decode

TAF

Not found

Departure Runways

ID Width Length Bearing (true) Bearing (mag) Surface Threshold Offset Overrun Length
04 148 ft / 45 m 10,072 ft / 3,070 m 45.79° 42.93° Asphalt 189 ft / 58 m 815 ft / 248 m
22 148 ft / 45 m 10,072 ft / 3,070 m 225.81° 222.95° Asphalt 1,345 ft / 410 m 189 ft / 58 m

LIMP

Details ICAO LIMP (PMF)
Name PARMA
Region Italy
Timezone Europe/Rome (UTC+1.0)
Stats Elevation 161 ft / 49 m (AMSL)
Location 44.826774° 10.297108°
Runways 1
Magnetic Variation 2.715° E

METAR

LIMP 131250Z 29004KT 250V320 6000 NSC 07/04 Q1017

Decode

TAF

TAF LIMP 131100Z 1312/1412 VRB05KT 6000 NSC BECMG 1319/1321 1500 BCFG TEMPO 1400/1407 0400 FG BKN005 BECMG 1408/1410 4000 BR SCT015

Decode

Destination Runways

ID Width Length Bearing (true) Bearing (mag) Surface Threshold Offset Overrun Length
02 148 ft / 45 m 6,966 ft / 2,123 m 17.20° 14.49° Asphalt 702 ft / 214 m 0 ft / 0 m
20 148 ft / 45 m 6,966 ft / 2,123 m 197.20° 194.49° Asphalt 597 ft / 182 m 0 ft / 0 m

Approach Navaids

Runway Type Ident Frequency Range Bearing (true) Bearing (mag) Slope Elevation
20 Localiser IPR 110.50 MHz 18 nm / 33 km 197.37° 194.66° - 163 ft / 50 m (AMSL)
20 Glidescope IPR 110.50 MHz 10 nm / 19 km 197.20° 194.48° 3.00° 145 ft / 44 m (AMSL)
20 DME IPR 110.50 MHz 18 nm / 33 km - - - 163 ft / 50 m (AMSL)